sensor_id;sensor_type;location;lat;lon;timestamp;P1;durP1;ratioP1;P2;durP2;ratioP2
23470;SDS011;11908;50.806;4.424;2023-04-25T00:02:01;22.92;;;4.65;;
23470;SDS011;11908;50.806;4.424;2023-04-25T00:04:27;17.60;;;5.05;;
23470;SDS011;11908;50.806;4.424;2023-04-25T00:06:54;21.00;;;5.72;;
23470;SDS011;11908;50.806;4.424;2023-04-25T00:09:20;18.70;;;4.70;;
23470;SDS011;11908;50.806;4.424;2023-04-25T00:11:47;17.52;;;4.43;;
23470;SDS011;11908;50.806;4.424;2023-04-25T00:14:12;14.45;;;4.05;;
23470;SDS011;11908;50.806;4.424;2023-04-25T00:16:38;25.55;;;4.80;;
23470;SDS011;11908;50.806;4.424;2023-04-25T00:19:06;16.65;;;4.85;;
23470;SDS011;11908;50.806;4.424;2023-04-25T00:21:32;23.35;;;4.88;;
23470;SDS011;11908;50.806;4.424;2023-04-25T00:23:58;21.15;;;5.65;;
23470;SDS011;11908;50.806;4.424;2023-04-25T00:26:25;20.63;;;4.88;;
23470;SDS011;11908;50.806;4.424;2023-04-25T00:28:51;21.02;;;5.03;;
23470;SDS011;11908;50.806;4.424;2023-04-25T00:31:17;17.00;;;4.75;;
23470;SDS011;11908;50.806;4.424;2023-04-25T00:33:42;17.05;;;4.63;;
23470;SDS011;11908;50.806;4.424;2023-04-25T00:36:08;19.27;;;4.57;;
23470;SDS011;11908;50.806;4.424;2023-04-25T00:38:34;18.77;;;4.80;;
23470;SDS011;11908;50.806;4.424;2023-04-25T00:41:00;17.88;;;4.97;;
23470;SDS011;11908;50.806;4.424;2023-04-25T00:43:26;21.25;;;5.22;;
23470;SDS011;11908;50.806;4.424;2023-04-25T00:45:52;21.73;;;4.95;;
23470;SDS011;11908;50.806;4.424;2023-04-25T00:48:19;17.73;;;4.78;;
23470;SDS011;11908;50.806;4.424;2023-04-25T00:50:51;20.83;;;4.63;;
23470;SDS011;11908;50.806;4.424;2023-04-25T00:53:19;23.98;;;4.47;;
23470;SDS011;11908;50.806;4.424;2023-04-25T00:55:49;17.92;;;4.85;;
23470;SDS011;11908;50.806;4.424;2023-04-25T00:58:18;24.77;;;5.55;;
23470;SDS011;11908;50.806;4.424;2023-04-25T01:00:46;24.38;;;6.28;;
23470;SDS011;11908;50.806;4.424;2023-04-25T01:03:13;20.20;;;5.38;;
23470;SDS011;11908;50.806;4.424;2023-04-25T01:05:41;16.33;;;5.25;;
23470;SDS011;11908;50.806;4.424;2023-04-25T01:08:07;20.80;;;5.45;;
23470;SDS011;11908;50.806;4.424;2023-04-25T01:10:33;26.85;;;5.32;;
23470;SDS011;11908;50.806;4.424;2023-04-25T01:12:58;24.42;;;6.22;;
23470;SDS011;11908;50.806;4.424;2023-04-25T01:15:24;20.08;;;5.60;;
23470;SDS011;11908;50.806;4.424;2023-04-25T01:17:50;20.63;;;5.45;;
23470;SDS011;11908;50.806;4.424;2023-04-25T01:20:17;23.42;;;5.18;;
23470;SDS011;11908;50.806;4.424;2023-04-25T01:22:43;20.77;;;5.72;;
23470;SDS011;11908;50.806;4.424;2023-04-25T01:25:09;19.60;;;5.95;;
23470;SDS011;11908;50.806;4.424;2023-04-25T01:27:35;23.92;;;5.70;;
23470;SDS011;11908;50.806;4.424;2023-04-25T01:30:02;15.35;;;4.50;;
23470;SDS011;11908;50.806;4.424;2023-04-25T01:32:28;24.25;;;6.90;;
23470;SDS011;11908;50.806;4.424;2023-04-25T01:34:56;19.95;;;5.57;;
23470;SDS011;11908;50.806;4.424;2023-04-25T01:37:22;23.75;;;6.28;;
23470;SDS011;11908;50.806;4.424;2023-04-25T01:39:48;24.95;;;5.65;;
23470;SDS011;11908;50.806;4.424;2023-04-25T01:42:15;23.27;;;6.00;;
23470;SDS011;11908;50.806;4.424;2023-04-25T01:44:40;19.60;;;5.90;;
23470;SDS011;11908;50.806;4.424;2023-04-25T01:47:06;26.52;;;5.85;;
23470;SDS011;11908;50.806;4.424;2023-04-25T01:49:32;22.90;;;6.35;;
23470;SDS011;11908;50.806;4.424;2023-04-25T01:51:57;20.75;;;5.60;;
23470;SDS011;11908;50.806;4.424;2023-04-25T01:54:23;23.13;;;5.93;;
23470;SDS011;11908;50.806;4.424;2023-04-25T01:56:52;21.52;;;5.72;;
23470;SDS011;11908;50.806;4.424;2023-04-25T01:59:18;27.95;;;6.70;;
23470;SDS011;11908;50.806;4.424;2023-04-25T02:01:45;22.27;;;6.20;;
23470;SDS011;11908;50.806;4.424;2023-04-25T02:04:10;20.80;;;7.18;;
23470;SDS011;11908;50.806;4.424;2023-04-25T02:06:36;24.70;;;6.60;;
23470;SDS011;11908;50.806;4.424;2023-04-25T02:09:02;27.50;;;6.55;;
23470;SDS011;11908;50.806;4.424;2023-04-25T02:11:27;20.02;;;6.60;;
23470;SDS011;11908;50.806;4.424;2023-04-25T02:13:53;20.67;;;5.90;;
23470;SDS011;11908;50.806;4.424;2023-04-25T02:16:20;20.33;;;5.40;;
23470;SDS011;11908;50.806;4.424;2023-04-25T02:18:46;20.13;;;5.70;;
23470;SDS011;11908;50.806;4.424;2023-04-25T02:21:11;18.15;;;6.03;;
23470;SDS011;11908;50.806;4.424;2023-04-25T02:23:37;23.75;;;5.72;;
23470;SDS011;11908;50.806;4.424;2023-04-25T02:26:03;22.15;;;6.18;;
23470;SDS011;11908;50.806;4.424;2023-04-25T02:28:29;24.10;;;6.85;;
23470;SDS011;11908;50.806;4.424;2023-04-25T02:30:55;24.83;;;6.13;;
23470;SDS011;11908;50.806;4.424;2023-04-25T02:33:21;22.25;;;6.95;;
23470;SDS011;11908;50.806;4.424;2023-04-25T02:35:47;28.65;;;6.85;;
23470;SDS011;11908;50.806;4.424;2023-04-25T02:38:12;16.05;;;5.93;;
23470;SDS011;11908;50.806;4.424;2023-04-25T02:40:38;23.08;;;5.28;;
23470;SDS011;11908;50.806;4.424;2023-04-25T02:43:04;19.52;;;5.88;;
23470;SDS011;11908;50.806;4.424;2023-04-25T02:45:29;29.77;;;6.95;;
23470;SDS011;11908;50.806;4.424;2023-04-25T02:47:55;24.25;;;6.75;;
23470;SDS011;11908;50.806;4.424;2023-04-25T02:50:21;22.45;;;5.30;;
23470;SDS011;11908;50.806;4.424;2023-04-25T02:52:46;18.65;;;6.75;;
23470;SDS011;11908;50.806;4.424;2023-04-25T02:55:12;26.42;;;6.57;;
23470;SDS011;11908;50.806;4.424;2023-04-25T02:57:39;22.20;;;5.63;;
23470;SDS011;11908;50.806;4.424;2023-04-25T03:00:04;15.57;;;5.45;;
23470;SDS011;11908;50.806;4.424;2023-04-25T03:02:31;22.63;;;5.78;;
23470;SDS011;11908;50.806;4.424;2023-04-25T03:04:56;22.20;;;6.35;;
23470;SDS011;11908;50.806;4.424;2023-04-25T03:07:23;21.15;;;5.95;;
23470;SDS011;11908;50.806;4.424;2023-04-25T03:09:48;20.65;;;6.68;;
23470;SDS011;11908;50.806;4.424;2023-04-25T03:12:14;17.67;;;5.93;;
23470;SDS011;11908;50.806;4.424;2023-04-25T03:14:40;19.90;;;6.68;;
23470;SDS011;11908;50.806;4.424;2023-04-25T03:17:06;19.83;;;6.82;;
23470;SDS011;11908;50.806;4.424;2023-04-25T03:19:31;17.80;;;6.38;;
23470;SDS011;11908;50.806;4.424;2023-04-25T03:21:57;23.50;;;5.93;;
23470;SDS011;11908;50.806;4.424;2023-04-25T03:24:23;21.83;;;6.80;;
23470;SDS011;11908;50.806;4.424;2023-04-25T03:26:49;20.48;;;5.95;;
23470;SDS011;11908;50.806;4.424;2023-04-25T03:29:14;24.42;;;6.15;;
23470;SDS011;11908;50.806;4.424;2023-04-25T03:31:40;22.48;;;6.00;;
23470;SDS011;11908;50.806;4.424;2023-04-25T03:34:06;26.80;;;6.30;;
23470;SDS011;11908;50.806;4.424;2023-04-25T03:36:31;22.55;;;5.45;;
23470;SDS011;11908;50.806;4.424;2023-04-25T03:38:57;27.42;;;6.82;;
23470;SDS011;11908;50.806;4.424;2023-04-25T03:41:23;26.25;;;6.78;;
23470;SDS011;11908;50.806;4.424;2023-04-25T03:43:49;24.95;;;6.85;;
23470;SDS011;11908;50.806;4.424;2023-04-25T03:46:15;27.95;;;6.57;;
23470;SDS011;11908;50.806;4.424;2023-04-25T03:48:41;22.88;;;6.85;;
23470;SDS011;11908;50.806;4.424;2023-04-25T03:51:06;22.17;;;5.70;;
23470;SDS011;11908;50.806;4.424;2023-04-25T03:53:32;29.75;;;6.85;;
23470;SDS011;11908;50.806;4.424;2023-04-25T03:55:58;25.60;;;6.30;;
23470;SDS011;11908;50.806;4.424;2023-04-25T03:58:23;31.15;;;7.07;;
23470;SDS011;11908;50.806;4.424;2023-04-25T04:00:49;24.20;;;6.63;;
23470;SDS011;11908;50.806;4.424;2023-04-25T04:03:15;28.73;;;6.68;;
23470;SDS011;11908;50.806;4.424;2023-04-25T04:05:40;27.05;;;6.35;;
23470;SDS011;11908;50.806;4.424;2023-04-25T04:08:06;36.58;;;8.07;;
23470;SDS011;11908;50.806;4.424;2023-04-25T04:10:32;25.60;;;7.72;;
23470;SDS011;11908;50.806;4.424;2023-04-25T04:12:58;26.77;;;7.47;;
23470;SDS011;11908;50.806;4.424;2023-04-25T04:15:23;22.60;;;7.15;;
23470;SDS011;11908;50.806;4.424;2023-04-25T04:17:49;21.67;;;5.95;;
23470;SDS011;11908;50.806;4.424;2023-04-25T04:20:15;22.42;;;6.45;;
23470;SDS011;11908;50.806;4.424;2023-04-25T04:22:41;23.15;;;6.40;;
23470;SDS011;11908;50.806;4.424;2023-04-25T04:25:06;22.05;;;5.60;;
23470;SDS011;11908;50.806;4.424;2023-04-25T04:27:32;22.48;;;5.65;;
23470;SDS011;11908;50.806;4.424;2023-04-25T04:29:59;15.52;;;5.53;;
23470;SDS011;11908;50.806;4.424;2023-04-25T04:32:25;14.23;;;5.70;;
23470;SDS011;11908;50.806;4.424;2023-04-25T04:34:52;18.55;;;5.60;;
23470;SDS011;11908;50.806;4.424;2023-04-25T04:37:19;14.65;;;5.30;;
23470;SDS011;11908;50.806;4.424;2023-04-25T04:39:45;19.55;;;5.53;;
23470;SDS011;11908;50.806;4.424;2023-04-25T04:42:11;17.73;;;5.20;;
23470;SDS011;11908;50.806;4.424;2023-04-25T04:44:37;25.00;;;6.15;;
23470;SDS011;11908;50.806;4.424;2023-04-25T04:47:03;23.92;;;5.60;;
23470;SDS011;11908;50.806;4.424;2023-04-25T04:49:31;18.10;;;5.57;;
23470;SDS011;11908;50.806;4.424;2023-04-25T04:51:57;20.50;;;5.45;;
23470;SDS011;11908;50.806;4.424;2023-04-25T04:54:24;18.63;;;5.68;;
23470;SDS011;11908;50.806;4.424;2023-04-25T04:56:50;22.20;;;5.60;;
23470;SDS011;11908;50.806;4.424;2023-04-25T04:59:17;16.58;;;5.63;;
23470;SDS011;11908;50.806;4.424;2023-04-25T05:01:43;17.45;;;5.63;;
23470;SDS011;11908;50.806;4.424;2023-04-25T05:04:08;17.25;;;5.82;;
23470;SDS011;11908;50.806;4.424;2023-04-25T05:06:34;19.42;;;5.20;;
23470;SDS011;11908;50.806;4.424;2023-04-25T05:09:00;28.27;;;6.03;;
23470;SDS011;11908;50.806;4.424;2023-04-25T05:11:26;20.55;;;6.20;;
23470;SDS011;11908;50.806;4.424;2023-04-25T05:13:52;22.30;;;6.60;;
23470;SDS011;11908;50.806;4.424;2023-04-25T05:16:17;26.85;;;6.60;;
23470;SDS011;11908;50.806;4.424;2023-04-25T05:18:43;15.75;;;5.88;;
23470;SDS011;11908;50.806;4.424;2023-04-25T05:21:09;16.77;;;5.60;;
23470;SDS011;11908;50.806;4.424;2023-04-25T05:23:35;21.85;;;6.38;;
23470;SDS011;11908;50.806;4.424;2023-04-25T05:26:00;18.65;;;5.78;;
23470;SDS011;11908;50.806;4.424;2023-04-25T05:28:26;18.50;;;6.13;;
23470;SDS011;11908;50.806;4.424;2023-04-25T05:30:52;19.83;;;6.53;;
23470;SDS011;11908;50.806;4.424;2023-04-25T05:33:18;21.33;;;6.95;;
23470;SDS011;11908;50.806;4.424;2023-04-25T05:35:45;23.73;;;7.78;;
23470;SDS011;11908;50.806;4.424;2023-04-25T05:38:11;22.33;;;7.22;;
23470;SDS011;11908;50.806;4.424;2023-04-25T05:40:37;19.17;;;5.93;;
23470;SDS011;11908;50.806;4.424;2023-04-25T05:43:03;23.23;;;5.25;;
23470;SDS011;11908;50.806;4.424;2023-04-25T05:45:29;21.73;;;5.72;;
23470;SDS011;11908;50.806;4.424;2023-04-25T05:47:54;21.73;;;5.80;;
23470;SDS011;11908;50.806;4.424;2023-04-25T05:50:20;23.50;;;5.22;;
23470;SDS011;11908;50.806;4.424;2023-04-25T05:52:46;20.95;;;5.75;;
23470;SDS011;11908;50.806;4.424;2023-04-25T05:55:11;11.55;;;4.32;;
23470;SDS011;11908;50.806;4.424;2023-04-25T05:57:38;19.27;;;4.82;;
23470;SDS011;11908;50.806;4.424;2023-04-25T06:00:06;18.13;;;4.60;;
23470;SDS011;11908;50.806;4.424;2023-04-25T06:02:34;15.00;;;4.55;;
23470;SDS011;11908;50.806;4.424;2023-04-25T06:05:00;18.17;;;5.28;;
23470;SDS011;11908;50.806;4.424;2023-04-25T06:07:28;15.00;;;4.97;;
23470;SDS011;11908;50.806;4.424;2023-04-25T06:09:55;16.20;;;4.35;;
23470;SDS011;11908;50.806;4.424;2023-04-25T06:12:21;13.43;;;5.13;;
23470;SDS011;11908;50.806;4.424;2023-04-25T06:14:46;17.10;;;4.90;;
23470;SDS011;11908;50.806;4.424;2023-04-25T06:17:12;14.73;;;4.75;;
23470;SDS011;11908;50.806;4.424;2023-04-25T06:19:38;18.60;;;4.25;;
23470;SDS011;11908;50.806;4.424;2023-04-25T06:22:04;15.45;;;5.20;;
23470;SDS011;11908;50.806;4.424;2023-04-25T06:24:29;18.77;;;6.30;;
23470;SDS011;11908;50.806;4.424;2023-04-25T06:26:55;26.55;;;5.68;;
23470;SDS011;11908;50.806;4.424;2023-04-25T06:29:21;16.90;;;5.15;;
23470;SDS011;11908;50.806;4.424;2023-04-25T06:31:46;16.48;;;5.07;;
23470;SDS011;11908;50.806;4.424;2023-04-25T06:34:12;21.30;;;5.80;;
23470;SDS011;11908;50.806;4.424;2023-04-25T06:36:38;21.67;;;5.85;;
23470;SDS011;11908;50.806;4.424;2023-04-25T06:39:03;18.58;;;5.63;;
23470;SDS011;11908;50.806;4.424;2023-04-25T06:41:29;15.85;;;6.15;;
23470;SDS011;11908;50.806;4.424;2023-04-25T06:43:55;17.08;;;6.20;;
23470;SDS011;11908;50.806;4.424;2023-04-25T06:46:20;28.58;;;5.88;;
23470;SDS011;11908;50.806;4.424;2023-04-25T06:48:46;16.98;;;6.68;;
23470;SDS011;11908;50.806;4.424;2023-04-25T06:51:12;18.60;;;6.97;;
23470;SDS011;11908;50.806;4.424;2023-04-25T06:53:38;29.35;;;7.20;;
23470;SDS011;11908;50.806;4.424;2023-04-25T06:56:04;27.58;;;7.45;;
23470;SDS011;11908;50.806;4.424;2023-04-25T06:58:30;21.38;;;7.60;;
23470;SDS011;11908;50.806;4.424;2023-04-25T07:00:56;16.38;;;6.18;;
23470;SDS011;11908;50.806;4.424;2023-04-25T07:03:22;17.40;;;6.25;;
23470;SDS011;11908;50.806;4.424;2023-04-25T07:05:48;22.15;;;5.85;;
23470;SDS011;11908;50.806;4.424;2023-04-25T07:08:15;20.65;;;5.53;;
23470;SDS011;11908;50.806;4.424;2023-04-25T07:10:40;23.42;;;5.72;;
23470;SDS011;11908;50.806;4.424;2023-04-25T07:13:06;17.45;;;5.22;;
23470;SDS011;11908;50.806;4.424;2023-04-25T07:15:32;16.50;;;5.32;;
23470;SDS011;11908;50.806;4.424;2023-04-25T07:17:57;17.00;;;5.13;;
23470;SDS011;11908;50.806;4.424;2023-04-25T07:20:23;18.63;;;4.88;;
23470;SDS011;11908;50.806;4.424;2023-04-25T07:22:49;22.13;;;4.88;;
23470;SDS011;11908;50.806;4.424;2023-04-25T07:25:15;22.45;;;5.07;;
23470;SDS011;11908;50.806;4.424;2023-04-25T07:27:41;17.35;;;5.75;;
23470;SDS011;11908;50.806;4.424;2023-04-25T07:30:07;21.35;;;5.55;;
23470;SDS011;11908;50.806;4.424;2023-04-25T07:32:33;15.93;;;5.05;;
23470;SDS011;11908;50.806;4.424;2023-04-25T07:34:58;14.95;;;4.97;;
23470;SDS011;11908;50.806;4.424;2023-04-25T07:37:24;17.15;;;5.07;;
23470;SDS011;11908;50.806;4.424;2023-04-25T07:39:51;12.77;;;4.00;;
23470;SDS011;11908;50.806;4.424;2023-04-25T07:42:17;13.52;;;4.80;;
23470;SDS011;11908;50.806;4.424;2023-04-25T07:44:42;16.30;;;4.13;;
23470;SDS011;11908;50.806;4.424;2023-04-25T07:47:08;15.90;;;3.28;;
23470;SDS011;11908;50.806;4.424;2023-04-25T07:49:35;14.90;;;3.85;;
23470;SDS011;11908;50.806;4.424;2023-04-25T07:52:01;17.50;;;4.43;;
23470;SDS011;11908;50.806;4.424;2023-04-25T07:54:28;13.15;;;3.40;;
23470;SDS011;11908;50.806;4.424;2023-04-25T07:56:54;15.27;;;3.50;;
23470;SDS011;11908;50.806;4.424;2023-04-25T07:59:20;12.07;;;3.60;;
23470;SDS011;11908;50.806;4.424;2023-04-25T08:01:46;19.25;;;4.75;;
23470;SDS011;11908;50.806;4.424;2023-04-25T08:04:12;14.73;;;3.85;;
23470;SDS011;11908;50.806;4.424;2023-04-25T08:06:38;15.75;;;4.45;;
23470;SDS011;11908;50.806;4.424;2023-04-25T08:09:03;16.02;;;3.70;;
23470;SDS011;11908;50.806;4.424;2023-04-25T08:11:29;10.38;;;3.13;;
23470;SDS011;11908;50.806;4.424;2023-04-25T08:13:55;18.63;;;4.93;;
23470;SDS011;11908;50.806;4.424;2023-04-25T08:16:21;17.95;;;3.17;;
23470;SDS011;11908;50.806;4.424;2023-04-25T08:18:47;13.07;;;3.90;;
23470;SDS011;11908;50.806;4.424;2023-04-25T08:21:13;10.35;;;3.75;;
23470;SDS011;11908;50.806;4.424;2023-04-25T08:23:40;11.27;;;3.35;;
23470;SDS011;11908;50.806;4.424;2023-04-25T08:26:06;12.13;;;3.33;;
23470;SDS011;11908;50.806;4.424;2023-04-25T08:28:32;18.35;;;3.42;;
23470;SDS011;11908;50.806;4.424;2023-04-25T08:30:57;19.48;;;4.20;;
23470;SDS011;11908;50.806;4.424;2023-04-25T08:33:23;13.00;;;3.42;;
23470;SDS011;11908;50.806;4.424;2023-04-25T08:35:48;11.60;;;3.30;;
23470;SDS011;11908;50.806;4.424;2023-04-25T08:38:14;10.07;;;3.03;;
23470;SDS011;11908;50.806;4.424;2023-04-25T08:40:40;15.32;;;3.97;;
23470;SDS011;11908;50.806;4.424;2023-04-25T08:43:08;11.60;;;3.38;;
23470;SDS011;11908;50.806;4.424;2023-04-25T08:45:38;13.38;;;3.40;;
23470;SDS011;11908;50.806;4.424;2023-04-25T08:48:11;11.13;;;4.50;;
23470;SDS011;11908;50.806;4.424;2023-04-25T08:50:50;14.30;;;3.63;;
23470;SDS011;11908;50.806;4.424;2023-04-25T08:53:21;15.00;;;3.03;;
23470;SDS011;11908;50.806;4.424;2023-04-25T08:55:50;11.27;;;3.00;;
23470;SDS011;11908;50.806;4.424;2023-04-25T08:58:18;16.60;;;3.35;;
23470;SDS011;11908;50.806;4.424;2023-04-25T09:00:45;8.80;;;2.53;;
23470;SDS011;11908;50.806;4.424;2023-04-25T09:03:12;6.30;;;2.08;;
23470;SDS011;11908;50.806;4.424;2023-04-25T09:05:39;6.85;;;2.85;;
23470;SDS011;11908;50.806;4.424;2023-04-25T09:08:06;8.75;;;2.40;;
23470;SDS011;11908;50.806;4.424;2023-04-25T09:10:32;7.78;;;2.38;;
23470;SDS011;11908;50.806;4.424;2023-04-25T09:13:23;10.10;;;2.60;;
23470;SDS011;11908;50.806;4.424;2023-04-25T09:15:51;14.00;;;3.75;;
23470;SDS011;11908;50.806;4.424;2023-04-25T09:20:52;9.20;;;2.65;;
23470;SDS011;11908;50.806;4.424;2023-04-25T09:23:19;13.77;;;2.85;;
23470;SDS011;11908;50.806;4.424;2023-04-25T09:25:49;9.40;;;2.58;;
23470;SDS011;11908;50.806;4.424;2023-04-25T09:28:16;11.82;;;4.22;;
23470;SDS011;11908;50.806;4.424;2023-04-25T09:30:47;6.82;;;3.00;;
23470;SDS011;11908;50.806;4.424;2023-04-25T09:33:13;9.27;;;4.25;;
23470;SDS011;11908;50.806;4.424;2023-04-25T09:35:39;8.18;;;2.78;;
23470;SDS011;11908;50.806;4.424;2023-04-25T09:38:16;11.15;;;2.80;;
23470;SDS011;11908;50.806;4.424;2023-04-25T09:40:44;11.38;;;2.42;;
23470;SDS011;11908;50.806;4.424;2023-04-25T09:43:20;6.95;;;2.05;;
23470;SDS011;11908;50.806;4.424;2023-04-25T09:45:47;10.95;;;3.00;;
23470;SDS011;11908;50.806;4.424;2023-04-25T09:48:20;11.55;;;2.63;;
23470;SDS011;11908;50.806;4.424;2023-04-25T09:51:09;8.75;;;2.70;;
23470;SDS011;11908;50.806;4.424;2023-04-25T09:53:41;9.30;;;2.28;;
23470;SDS011;11908;50.806;4.424;2023-04-25T09:56:09;11.43;;;2.10;;
23470;SDS011;11908;50.806;4.424;2023-04-25T09:58:36;6.78;;;2.55;;
23470;SDS011;11908;50.806;4.424;2023-04-25T10:01:04;11.90;;;2.33;;
23470;SDS011;11908;50.806;4.424;2023-04-25T10:03:33;9.90;;;2.42;;
23470;SDS011;11908;50.806;4.424;2023-04-25T10:06:00;9.25;;;2.25;;
23470;SDS011;11908;50.806;4.424;2023-04-25T10:08:32;6.63;;;1.90;;
23470;SDS011;11908;50.806;4.424;2023-04-25T10:11:03;9.85;;;2.35;;
23470;SDS011;11908;50.806;4.424;2023-04-25T10:13:31;8.57;;;2.90;;
23470;SDS011;11908;50.806;4.424;2023-04-25T10:16:04;8.43;;;2.38;;
23470;SDS011;11908;50.806;4.424;2023-04-25T10:18:30;8.60;;;2.47;;
23470;SDS011;11908;50.806;4.424;2023-04-25T10:21:06;7.60;;;2.08;;
23470;SDS011;11908;50.806;4.424;2023-04-25T10:23:32;6.90;;;2.17;;
23470;SDS011;11908;50.806;4.424;2023-04-25T10:25:59;8.55;;;2.50;;
23470;SDS011;11908;50.806;4.424;2023-04-25T10:28:25;10.85;;;2.38;;
23470;SDS011;11908;50.806;4.424;2023-04-25T10:36:18;6.75;;;2.05;;
23470;SDS011;11908;50.806;4.424;2023-04-25T10:38:46;6.13;;;1.80;;
23470;SDS011;11908;50.806;4.424;2023-04-25T10:41:13;9.02;;;2.03;;
23470;SDS011;11908;50.806;4.424;2023-04-25T10:48:49;4.80;;;1.75;;
23470;SDS011;11908;50.806;4.424;2023-04-25T10:51:19;7.22;;;1.63;;
23470;SDS011;11908;50.806;4.424;2023-04-25T10:53:56;5.57;;;1.20;;
23470;SDS011;11908;50.806;4.424;2023-04-25T10:56:24;4.00;;;1.37;;
23470;SDS011;11908;50.806;4.424;2023-04-25T10:59:17;7.72;;;2.40;;
23470;SDS011;11908;50.806;4.424;2023-04-25T11:01:42;6.65;;;1.75;;
23470;SDS011;11908;50.806;4.424;2023-04-25T11:09:34;6.10;;;1.25;;
23470;SDS011;11908;50.806;4.424;2023-04-25T11:12:00;5.95;;;1.67;;
23470;SDS011;11908;50.806;4.424;2023-04-25T11:14:26;10.43;;;1.88;;
23470;SDS011;11908;50.806;4.424;2023-04-25T11:16:55;6.30;;;1.90;;
23470;SDS011;11908;50.806;4.424;2023-04-25T11:19:22;5.03;;;1.70;;
23470;SDS011;11908;50.806;4.424;2023-04-25T11:21:49;9.10;;;2.10;;
23470;SDS011;11908;50.806;4.424;2023-04-25T11:24:18;7.00;;;2.20;;
23470;SDS011;11908;50.806;4.424;2023-04-25T11:26:46;6.65;;;2.00;;
23470;SDS011;11908;50.806;4.424;2023-04-25T11:29:13;7.57;;;1.88;;
23470;SDS011;11908;50.806;4.424;2023-04-25T11:31:39;9.27;;;1.70;;
23470;SDS011;11908;50.806;4.424;2023-04-25T11:34:10;4.90;;;2.10;;
23470;SDS011;11908;50.806;4.424;2023-04-25T11:36:36;10.10;;;2.05;;
23470;SDS011;11908;50.806;4.424;2023-04-25T11:39:03;7.75;;;1.85;;
23470;SDS011;11908;50.806;4.424;2023-04-25T11:41:30;8.07;;;1.63;;
23470;SDS011;11908;50.806;4.424;2023-04-25T11:43:56;7.25;;;1.70;;
23470;SDS011;11908;50.806;4.424;2023-04-25T11:46:22;5.90;;;1.50;;
23470;SDS011;11908;50.806;4.424;2023-04-25T11:48:48;6.40;;;1.73;;
23470;SDS011;11908;50.806;4.424;2023-04-25T11:51:15;6.90;;;1.63;;
23470;SDS011;11908;50.806;4.424;2023-04-25T11:53:41;9.70;;;1.63;;
23470;SDS011;11908;50.806;4.424;2023-04-25T11:56:10;5.82;;;1.65;;
23470;SDS011;11908;50.806;4.424;2023-04-25T12:01:25;5.10;;;1.20;;
23470;SDS011;11908;50.806;4.424;2023-04-25T12:03:52;6.97;;;1.92;;
23470;SDS011;11908;50.806;4.424;2023-04-25T12:06:18;4.88;;;1.40;;
23470;SDS011;11908;50.806;4.424;2023-04-25T12:09:03;5.05;;;1.40;;
23470;SDS011;11908;50.806;4.424;2023-04-25T12:11:30;9.02;;;1.42;;
23470;SDS011;11908;50.806;4.424;2023-04-25T12:14:01;7.47;;;1.75;;
23470;SDS011;11908;50.806;4.424;2023-04-25T12:16:28;3.83;;;1.40;;
23470;SDS011;11908;50.806;4.424;2023-04-25T12:18:55;6.03;;;1.42;;
23470;SDS011;11908;50.806;4.424;2023-04-25T12:21:22;4.72;;;1.40;;
23470;SDS011;11908;50.806;4.424;2023-04-25T12:23:47;5.28;;;1.48;;
23470;SDS011;11908;50.806;4.424;2023-04-25T12:26:13;2.58;;;1.23;;
23470;SDS011;11908;50.806;4.424;2023-04-25T12:28:39;6.28;;;1.30;;
23470;SDS011;11908;50.806;4.424;2023-04-25T12:31:06;3.83;;;1.40;;
23470;SDS011;11908;50.806;4.424;2023-04-25T12:33:32;2.75;;;1.30;;
23470;SDS011;11908;50.806;4.424;2023-04-25T12:36:00;4.03;;;1.52;;
23470;SDS011;11908;50.806;4.424;2023-04-25T12:38:35;6.88;;;1.42;;
23470;SDS011;11908;50.806;4.424;2023-04-25T12:41:03;3.35;;;1.00;;
23470;SDS011;11908;50.806;4.424;2023-04-25T12:43:28;5.57;;;1.33;;
23470;SDS011;11908;50.806;4.424;2023-04-25T12:45:55;5.15;;;1.20;;
23470;SDS011;11908;50.806;4.424;2023-04-25T12:48:21;2.03;;;1.15;;
23470;SDS011;11908;50.806;4.424;2023-04-25T12:50:49;5.78;;;1.00;;
23470;SDS011;11908;50.806;4.424;2023-04-25T12:53:16;4.22;;;1.40;;
23470;SDS011;11908;50.806;4.424;2023-04-25T12:55:43;6.65;;;1.02;;
23470;SDS011;11908;50.806;4.424;2023-04-25T12:58:11;3.70;;;1.08;;
23470;SDS011;11908;50.806;4.424;2023-04-25T13:00:41;2.60;;;1.00;;
23470;SDS011;11908;50.806;4.424;2023-04-25T13:03:08;2.83;;;0.90;;
23470;SDS011;11908;50.806;4.424;2023-04-25T13:05:34;4.13;;;1.17;;
23470;SDS011;11908;50.806;4.424;2023-04-25T13:08:00;3.47;;;1.10;;
23470;SDS011;11908;50.806;4.424;2023-04-25T13:10:26;3.78;;;1.30;;
23470;SDS011;11908;50.806;4.424;2023-04-25T13:12:52;4.32;;;1.42;;
23470;SDS011;11908;50.806;4.424;2023-04-25T13:15:17;2.65;;;1.00;;
23470;SDS011;11908;50.806;4.424;2023-04-25T13:17:43;4.30;;;1.33;;
23470;SDS011;11908;50.806;4.424;2023-04-25T13:20:09;4.32;;;1.70;;
23470;SDS011;11908;50.806;4.424;2023-04-25T13:22:35;7.25;;;1.48;;
23470;SDS011;11908;50.806;4.424;2023-04-25T13:25:03;7.95;;;2.00;;
23470;SDS011;11908;50.806;4.424;2023-04-25T13:27:30;5.75;;;1.73;;
23470;SDS011;11908;50.806;4.424;2023-04-25T13:29:57;5.63;;;1.30;;
23470;SDS011;11908;50.806;4.424;2023-04-25T13:32:23;4.47;;;1.40;;
23470;SDS011;11908;50.806;4.424;2023-04-25T13:34:49;8.45;;;1.65;;
23470;SDS011;11908;50.806;4.424;2023-04-25T13:37:16;5.25;;;1.50;;
23470;SDS011;11908;50.806;4.424;2023-04-25T13:39:41;4.35;;;1.40;;
23470;SDS011;11908;50.806;4.424;2023-04-25T13:42:07;12.90;;;1.90;;
23470;SDS011;11908;50.806;4.424;2023-04-25T13:44:33;4.53;;;1.10;;
23470;SDS011;11908;50.806;4.424;2023-04-25T13:46:58;5.97;;;1.08;;
23470;SDS011;11908;50.806;4.424;2023-04-25T13:49:25;4.97;;;1.30;;
23470;SDS011;11908;50.806;4.424;2023-04-25T13:51:51;5.57;;;1.30;;
23470;SDS011;11908;50.806;4.424;2023-04-25T13:54:17;4.55;;;1.13;;
23470;SDS011;11908;50.806;4.424;2023-04-25T13:56:42;6.47;;;1.38;;
23470;SDS011;11908;50.806;4.424;2023-04-25T13:59:08;4.13;;;1.23;;
23470;SDS011;11908;50.806;4.424;2023-04-25T14:01:34;6.18;;;1.40;;
23470;SDS011;11908;50.806;4.424;2023-04-25T14:04:01;3.97;;;1.30;;
23470;SDS011;11908;50.806;4.424;2023-04-25T14:06:28;3.75;;;1.25;;
23470;SDS011;11908;50.806;4.424;2023-04-25T14:08:54;12.52;;;1.98;;
23470;SDS011;11908;50.806;4.424;2023-04-25T14:11:19;7.10;;;1.73;;
23470;SDS011;11908;50.806;4.424;2023-04-25T14:13:48;7.32;;;1.40;;
23470;SDS011;11908;50.806;4.424;2023-04-25T14:16:14;5.65;;;1.50;;
23470;SDS011;11908;50.806;4.424;2023-04-25T14:18:41;8.63;;;2.03;;
23470;SDS011;11908;50.806;4.424;2023-04-25T14:21:06;6.38;;;1.70;;
23470;SDS011;11908;50.806;4.424;2023-04-25T14:23:32;9.40;;;1.27;;
23470;SDS011;11908;50.806;4.424;2023-04-25T14:25:58;8.70;;;1.30;;
23470;SDS011;11908;50.806;4.424;2023-04-25T14:28:24;6.03;;;1.60;;
23470;SDS011;11908;50.806;4.424;2023-04-25T14:30:49;3.85;;;1.40;;
23470;SDS011;11908;50.806;4.424;2023-04-25T14:33:15;5.97;;;1.33;;
23470;SDS011;11908;50.806;4.424;2023-04-25T14:35:41;8.27;;;1.58;;
23470;SDS011;11908;50.806;4.424;2023-04-25T14:38:07;5.68;;;1.58;;
23470;SDS011;11908;50.806;4.424;2023-04-25T14:40:32;8.82;;;1.50;;
23470;SDS011;11908;50.806;4.424;2023-04-25T14:42:58;3.70;;;1.40;;
23470;SDS011;11908;50.806;4.424;2023-04-25T14:45:24;2.88;;;1.00;;
23470;SDS011;11908;50.806;4.424;2023-04-25T14:47:50;3.67;;;1.05;;
23470;SDS011;11908;50.806;4.424;2023-04-25T14:50:16;3.97;;;1.42;;
23470;SDS011;11908;50.806;4.424;2023-04-25T14:52:42;6.35;;;1.33;;
23470;SDS011;11908;50.806;4.424;2023-04-25T14:55:08;3.05;;;1.30;;
23470;SDS011;11908;50.806;4.424;2023-04-25T14:57:34;6.53;;;1.30;;